sensor_id;sensor_type;location;lat;lon;timestamp;temperature;humidity
61016;DHT22;46902;52.920;6.536;2023-05-03T00:01:39;6.00;96.50
61016;DHT22;46902;52.920;6.536;2023-05-03T00:04:05;6.00;96.30
61016;DHT22;46902;52.920;6.536;2023-05-03T00:06:31;5.90;96.60
61016;DHT22;46902;52.920;6.536;2023-05-03T00:08:57;5.90;96.70
61016;DHT22;46902;52.920;6.536;2023-05-03T00:11:23;5.90;96.80
61016;DHT22;46902;52.920;6.536;2023-05-03T00:13:48;5.90;97.10
61016;DHT22;46902;52.920;6.536;2023-05-03T00:16:14;6.00;97.30
61016;DHT22;46902;52.920;6.536;2023-05-03T00:18:39;6.00;97.50
61016;DHT22;46902;52.920;6.536;2023-05-03T00:21:05;6.00;97.70
61016;DHT22;46902;52.920;6.536;2023-05-03T00:23:31;6.00;98.00
61016;DHT22;46902;52.920;6.536;2023-05-03T00:25:57;6.00;98.00
61016;DHT22;46902;52.920;6.536;2023-05-03T00:28:24;6.00;98.00
61016;DHT22;46902;52.920;6.536;2023-05-03T00:30:50;6.10;98.20
61016;DHT22;46902;52.920;6.536;2023-05-03T00:33:16;6.10;98.40
61016;DHT22;46902;52.920;6.536;2023-05-03T00:35:43;6.10;98.60
61016;DHT22;46902;52.920;6.536;2023-05-03T00:38:08;6.10;98.50
61016;DHT22;46902;52.920;6.536;2023-05-03T00:40:34;6.20;98.70
61016;DHT22;46902;52.920;6.536;2023-05-03T00:43:00;6.20;98.70
61016;DHT22;46902;52.920;6.536;2023-05-03T00:45:25;6.20;98.80
61016;DHT22;46902;52.920;6.536;2023-05-03T00:47:51;6.30;99.00
61016;DHT22;46902;52.920;6.536;2023-05-03T00:50:17;6.30;99.10
61016;DHT22;46902;52.920;6.536;2023-05-03T00:52:43;6.30;99.00
61016;DHT22;46902;52.920;6.536;2023-05-03T00:55:10;6.30;99.10
61016;DHT22;46902;52.920;6.536;2023-05-03T00:57:36;6.40;99.50
61016;DHT22;46902;52.920;6.536;2023-05-03T01:00:01;6.40;99.80
61016;DHT22;46902;52.920;6.536;2023-05-03T01:02:28;6.40;99.90
61016;DHT22;46902;52.920;6.536;2023-05-03T01:04:54;6.50;99.90
61016;DHT22;46902;52.920;6.536;2023-05-03T01:10:35;6.40;99.80
61016;DHT22;46902;52.920;6.536;2023-05-03T01:13:11;6.50;99.90
61016;DHT22;46902;52.920;6.536;2023-05-03T01:16:03;6.60;99.90
61016;DHT22;46902;52.920;6.536;2023-05-03T01:18:36;6.60;99.90
61016;DHT22;46902;52.920;6.536;2023-05-03T01:21:03;6.60;99.90
61016;DHT22;46902;52.920;6.536;2023-05-03T01:23:47;6.60;99.90
61016;DHT22;46902;52.920;6.536;2023-05-03T01:26:21;6.60;99.90
61016;DHT22;46902;52.920;6.536;2023-05-03T01:28:47;6.70;99.90
61016;DHT22;46902;52.920;6.536;2023-05-03T01:31:25;6.70;99.90
61016;DHT22;46902;52.920;6.536;2023-05-03T01:34:09;6.70;99.90
61016;DHT22;46902;52.920;6.536;2023-05-03T01:36:41;6.70;99.90
61016;DHT22;46902;52.920;6.536;2023-05-03T01:39:12;6.80;99.90
61016;DHT22;46902;52.920;6.536;2023-05-03T01:41:40;6.80;99.90
61016;DHT22;46902;52.920;6.536;2023-05-03T01:44:08;6.80;99.90
61016;DHT22;46902;52.920;6.536;2023-05-03T01:46:33;6.80;99.90
61016;DHT22;46902;52.920;6.536;2023-05-03T01:48:59;6.70;99.90
61016;DHT22;46902;52.920;6.536;2023-05-03T01:51:24;6.70;99.90
61016;DHT22;46902;52.920;6.536;2023-05-03T01:53:50;6.80;99.90
61016;DHT22;46902;52.920;6.536;2023-05-03T01:56:16;6.80;99.90
61016;DHT22;46902;52.920;6.536;2023-05-03T01:58:41;6.70;99.90
61016;DHT22;46902;52.920;6.536;2023-05-03T02:01:07;6.70;99.90
61016;DHT22;46902;52.920;6.536;2023-05-03T02:03:33;6.70;99.90
61016;DHT22;46902;52.920;6.536;2023-05-03T02:05:59;6.60;99.90
61016;DHT22;46902;52.920;6.536;2023-05-03T02:08:24;6.60;99.90
61016;DHT22;46902;52.920;6.536;2023-05-03T02:10:50;6.50;99.90
61016;DHT22;46902;52.920;6.536;2023-05-03T02:13:16;6.60;99.90
61016;DHT22;46902;52.920;6.536;2023-05-03T02:15:41;6.50;99.90
61016;DHT22;46902;52.920;6.536;2023-05-03T02:18:07;6.50;99.90
61016;DHT22;46902;52.920;6.536;2023-05-03T02:20:34;6.50;99.90
61016;DHT22;46902;52.920;6.536;2023-05-03T02:23:02;6.40;99.90
61016;DHT22;46902;52.920;6.536;2023-05-03T02:25:28;6.50;99.90
61016;DHT22;46902;52.920;6.536;2023-05-03T02:27:54;6.40;99.90
61016;DHT22;46902;52.920;6.536;2023-05-03T02:30:20;6.40;99.90
61016;DHT22;46902;52.920;6.536;2023-05-03T02:32:45;6.30;99.90
61016;DHT22;46902;52.920;6.536;2023-05-03T02:35:11;6.30;99.90
61016;DHT22;46902;52.920;6.536;2023-05-03T02:37:37;6.30;99.90
61016;DHT22;46902;52.920;6.536;2023-05-03T02:40:02;6.20;99.90
61016;DHT22;46902;52.920;6.536;2023-05-03T02:42:30;6.20;99.90
61016;DHT22;46902;52.920;6.536;2023-05-03T02:44:56;6.20;99.90
61016;DHT22;46902;52.920;6.536;2023-05-03T02:47:21;6.10;99.90
61016;DHT22;46902;52.920;6.536;2023-05-03T02:49:47;6.10;99.90
61016;DHT22;46902;52.920;6.536;2023-05-03T02:52:12;6.00;99.90
61016;DHT22;46902;52.920;6.536;2023-05-03T02:54:38;6.00;99.90
61016;DHT22;46902;52.920;6.536;2023-05-03T02:57:03;5.90;99.90
61016;DHT22;46902;52.920;6.536;2023-05-03T02:59:30;5.90;99.90
61016;DHT22;46902;52.920;6.536;2023-05-03T03:01:57;5.90;99.90
61016;DHT22;46902;52.920;6.536;2023-05-03T03:04:23;5.80;99.90
61016;DHT22;46902;52.920;6.536;2023-05-03T03:06:49;5.80;99.90
61016;DHT22;46902;52.920;6.536;2023-05-03T03:09:18;5.80;99.90
61016;DHT22;46902;52.920;6.536;2023-05-03T03:11:43;5.80;99.90
61016;DHT22;46902;52.920;6.536;2023-05-03T03:14:09;5.70;99.90
61016;DHT22;46902;52.920;6.536;2023-05-03T03:16:34;5.70;99.90
61016;DHT22;46902;52.920;6.536;2023-05-03T03:19:00;5.60;99.90
61016;DHT22;46902;52.920;6.536;2023-05-03T03:21:26;5.50;99.90
61016;DHT22;46902;52.920;6.536;2023-05-03T03:23:53;5.50;99.90
61016;DHT22;46902;52.920;6.536;2023-05-03T03:26:19;5.50;99.90
61016;DHT22;46902;52.920;6.536;2023-05-03T03:28:44;5.50;99.90
61016;DHT22;46902;52.920;6.536;2023-05-03T03:31:10;5.50;99.90
61016;DHT22;46902;52.920;6.536;2023-05-03T03:33:35;5.40;99.90
61016;DHT22;46902;52.920;6.536;2023-05-03T03:36:01;5.40;99.90
61016;DHT22;46902;52.920;6.536;2023-05-03T03:38:26;5.40;99.90
61016;DHT22;46902;52.920;6.536;2023-05-03T03:40:52;5.30;99.90
61016;DHT22;46902;52.920;6.536;2023-05-03T03:43:18;5.30;99.90
61016;DHT22;46902;52.920;6.536;2023-05-03T03:45:44;5.20;99.90
61016;DHT22;46902;52.920;6.536;2023-05-03T03:48:09;5.20;99.90
61016;DHT22;46902;52.920;6.536;2023-05-03T03:50:36;5.20;99.90
61016;DHT22;46902;52.920;6.536;2023-05-03T03:53:02;5.10;99.90
61016;DHT22;46902;52.920;6.536;2023-05-03T03:55:28;5.10;99.90
61016;DHT22;46902;52.920;6.536;2023-05-03T03:57:53;5.00;99.90
61016;DHT22;46902;52.920;6.536;2023-05-03T04:00:19;5.00;99.90
61016;DHT22;46902;52.920;6.536;2023-05-03T04:02:45;5.00;99.90
61016;DHT22;46902;52.920;6.536;2023-05-03T04:05:11;5.00;99.90
61016;DHT22;46902;52.920;6.536;2023-05-03T04:07:36;5.00;99.90
61016;DHT22;46902;52.920;6.536;2023-05-03T04:10:02;5.00;99.90
61016;DHT22;46902;52.920;6.536;2023-05-03T04:12:27;4.90;99.90
61016;DHT22;46902;52.920;6.536;2023-05-03T04:14:54;4.90;99.90
61016;DHT22;46902;52.920;6.536;2023-05-03T04:17:21;4.90;99.90
61016;DHT22;46902;52.920;6.536;2023-05-03T04:19:47;5.00;99.90
61016;DHT22;46902;52.920;6.536;2023-05-03T04:22:13;5.00;99.90
61016;DHT22;46902;52.920;6.536;2023-05-03T04:24:38;5.00;99.90
61016;DHT22;46902;52.920;6.536;2023-05-03T04:27:05;4.90;99.90
61016;DHT22;46902;52.920;6.536;2023-05-03T04:29:30;5.00;99.90
61016;DHT22;46902;52.920;6.536;2023-05-03T04:31:56;5.00;99.90
61016;DHT22;46902;52.920;6.536;2023-05-03T04:34:22;5.00;99.90
61016;DHT22;46902;52.920;6.536;2023-05-03T04:36:47;5.00;99.90
61016;DHT22;46902;52.920;6.536;2023-05-03T04:39:13;5.10;99.90
61016;DHT22;46902;52.920;6.536;2023-05-03T04:41:39;5.10;99.90
61016;DHT22;46902;52.920;6.536;2023-05-03T04:44:06;5.10;99.90
61016;DHT22;46902;52.920;6.536;2023-05-03T04:46:32;5.10;99.90
61016;DHT22;46902;52.920;6.536;2023-05-03T04:48:58;5.20;99.90
61016;DHT22;46902;52.920;6.536;2023-05-03T04:51:23;5.30;99.90
61016;DHT22;46902;52.920;6.536;2023-05-03T04:53:49;5.40;99.90
61016;DHT22;46902;52.920;6.536;2023-05-03T04:56:15;5.40;99.90
61016;DHT22;46902;52.920;6.536;2023-05-03T04:58:40;5.50;99.90
61016;DHT22;46902;52.920;6.536;2023-05-03T05:01:07;5.60;99.90
61016;DHT22;46902;52.920;6.536;2023-05-03T05:03:33;5.70;99.90
61016;DHT22;46902;52.920;6.536;2023-05-03T05:05:58;5.70;99.90
61016;DHT22;46902;52.920;6.536;2023-05-03T05:08:24;5.80;99.90
61016;DHT22;46902;52.920;6.536;2023-05-03T05:10:50;5.90;99.90
61016;DHT22;46902;52.920;6.536;2023-05-03T05:13:16;5.90;99.90
61016;DHT22;46902;52.920;6.536;2023-05-03T05:15:42;6.00;99.90
61016;DHT22;46902;52.920;6.536;2023-05-03T05:18:07;6.10;99.90
61016;DHT22;46902;52.920;6.536;2023-05-03T05:20:33;6.10;99.90
61016;DHT22;46902;52.920;6.536;2023-05-03T05:22:59;6.20;99.90
61016;DHT22;46902;52.920;6.536;2023-05-03T05:25:25;6.30;99.90
61016;DHT22;46902;52.920;6.536;2023-05-03T05:27:51;6.50;99.90
61016;DHT22;46902;52.920;6.536;2023-05-03T05:30:17;6.50;99.90
61016;DHT22;46902;52.920;6.536;2023-05-03T05:32:43;6.60;99.90
61016;DHT22;46902;52.920;6.536;2023-05-03T05:35:09;6.70;99.90
61016;DHT22;46902;52.920;6.536;2023-05-03T05:37:34;6.80;99.90
61016;DHT22;46902;52.920;6.536;2023-05-03T05:40:00;6.90;99.90
61016;DHT22;46902;52.920;6.536;2023-05-03T05:42:26;7.00;99.90
61016;DHT22;46902;52.920;6.536;2023-05-03T05:44:51;7.00;99.90
61016;DHT22;46902;52.920;6.536;2023-05-03T05:47:17;7.10;99.90
61016;DHT22;46902;52.920;6.536;2023-05-03T05:49:42;7.20;99.90
61016;DHT22;46902;52.920;6.536;2023-05-03T05:52:08;7.30;99.90
61016;DHT22;46902;52.920;6.536;2023-05-03T05:54:33;7.30;99.90
61016;DHT22;46902;52.920;6.536;2023-05-03T05:56:59;7.40;99.90
61016;DHT22;46902;52.920;6.536;2023-05-03T05:59:25;7.50;99.90
61016;DHT22;46902;52.920;6.536;2023-05-03T06:01:51;7.70;99.90
61016;DHT22;46902;52.920;6.536;2023-05-03T06:04:17;7.80;99.90
61016;DHT22;46902;52.920;6.536;2023-05-03T06:06:42;7.80;99.90
61016;DHT22;46902;52.920;6.536;2023-05-03T06:09:08;7.90;99.90
61016;DHT22;46902;52.920;6.536;2023-05-03T06:11:34;8.00;99.90
61016;DHT22;46902;52.920;6.536;2023-05-03T06:14:00;8.10;99.90
61016;DHT22;46902;52.920;6.536;2023-05-03T06:16:28;8.10;99.90
61016;DHT22;46902;52.920;6.536;2023-05-03T06:18:54;8.20;99.90
61016;DHT22;46902;52.920;6.536;2023-05-03T06:21:20;8.20;99.90
61016;DHT22;46902;52.920;6.536;2023-05-03T06:23:45;8.30;99.90
61016;DHT22;46902;52.920;6.536;2023-05-03T06:26:11;8.40;99.90
61016;DHT22;46902;52.920;6.536;2023-05-03T06:28:37;8.50;99.90
61016;DHT22;46902;52.920;6.536;2023-05-03T06:31:02;8.60;99.90
61016;DHT22;46902;52.920;6.536;2023-05-03T06:33:28;8.60;99.90
61016;DHT22;46902;52.920;6.536;2023-05-03T06:35:53;8.70;99.90
61016;DHT22;46902;52.920;6.536;2023-05-03T06:38:19;8.80;99.90
61016;DHT22;46902;52.920;6.536;2023-05-03T06:40:45;8.90;99.90
61016;DHT22;46902;52.920;6.536;2023-05-03T06:43:11;8.90;99.90
61016;DHT22;46902;52.920;6.536;2023-05-03T06:45:38;8.90;99.20
61016;DHT22;46902;52.920;6.536;2023-05-03T06:48:04;9.00;98.60
61016;DHT22;46902;52.920;6.536;2023-05-03T06:50:30;9.10;97.70
61016;DHT22;46902;52.920;6.536;2023-05-03T06:52:56;9.20;97.00
61016;DHT22;46902;52.920;6.536;2023-05-03T06:55:21;9.20;96.40
61016;DHT22;46902;52.920;6.536;2023-05-03T06:57:47;9.40;96.40
61016;DHT22;46902;52.920;6.536;2023-05-03T07:00:14;9.40;95.70
61016;DHT22;46902;52.920;6.536;2023-05-03T07:02:40;9.50;95.10
61016;DHT22;46902;52.920;6.536;2023-05-03T07:05:06;9.60;94.70
61016;DHT22;46902;52.920;6.536;2023-05-03T07:07:32;9.70;94.40
61016;DHT22;46902;52.920;6.536;2023-05-03T07:09:58;9.80;93.90
61016;DHT22;46902;52.920;6.536;2023-05-03T07:12:23;9.90;93.60
61016;DHT22;46902;52.920;6.536;2023-05-03T07:14:56;9.90;92.70
61016;DHT22;46902;52.920;6.536;2023-05-03T07:17:22;10.00;91.80
61016;DHT22;46902;52.920;6.536;2023-05-03T07:19:51;10.00;91.20
61016;DHT22;46902;52.920;6.536;2023-05-03T07:22:17;10.10;91.20
61016;DHT22;46902;52.920;6.536;2023-05-03T07:24:45;10.10;91.00
61016;DHT22;46902;52.920;6.536;2023-05-03T07:27:12;10.20;91.00
61016;DHT22;46902;52.920;6.536;2023-05-03T07:29:39;10.20;90.10
61016;DHT22;46902;52.920;6.536;2023-05-03T07:32:05;10.20;89.40
61016;DHT22;46902;52.920;6.536;2023-05-03T07:34:31;10.30;88.30
61016;DHT22;46902;52.920;6.536;2023-05-03T07:36:57;10.30;87.60
61016;DHT22;46902;52.920;6.536;2023-05-03T07:39:22;10.40;87.80
61016;DHT22;46902;52.920;6.536;2023-05-03T07:41:48;10.40;87.00
61016;DHT22;46902;52.920;6.536;2023-05-03T07:44:14;10.50;86.40
61016;DHT22;46902;52.920;6.536;2023-05-03T07:46:39;10.50;85.40
61016;DHT22;46902;52.920;6.536;2023-05-03T07:49:05;10.50;85.00
61016;DHT22;46902;52.920;6.536;2023-05-03T07:51:35;10.50;84.90
61016;DHT22;46902;52.920;6.536;2023-05-03T07:54:01;10.50;83.50
61016;DHT22;46902;52.920;6.536;2023-05-03T07:56:27;10.60;84.00
61016;DHT22;46902;52.920;6.536;2023-05-03T07:58:53;10.70;83.50
61016;DHT22;46902;52.920;6.536;2023-05-03T08:01:19;11.00;83.40
61016;DHT22;46902;52.920;6.536;2023-05-03T08:03:46;11.10;82.90
61016;DHT22;46902;52.920;6.536;2023-05-03T08:06:18;11.20;82.50
61016;DHT22;46902;52.920;6.536;2023-05-03T08:08:44;11.20;81.90
61016;DHT22;46902;52.920;6.536;2023-05-03T08:11:09;11.40;81.60
61016;DHT22;46902;52.920;6.536;2023-05-03T08:13:35;11.40;81.20
61016;DHT22;46902;52.920;6.536;2023-05-03T08:16:01;11.40;80.80
61016;DHT22;46902;52.920;6.536;2023-05-03T08:18:27;11.40;80.30
61016;DHT22;46902;52.920;6.536;2023-05-03T08:20:53;11.30;79.70
61016;DHT22;46902;52.920;6.536;2023-05-03T08:23:18;11.30;79.90
61016;DHT22;46902;52.920;6.536;2023-05-03T08:25:44;11.30;79.20
61016;DHT22;46902;52.920;6.536;2023-05-03T08:28:10;11.30;79.30
61016;DHT22;46902;52.920;6.536;2023-05-03T08:30:36;11.40;79.30
61016;DHT22;46902;52.920;6.536;2023-05-03T08:33:02;11.40;79.10
61016;DHT22;46902;52.920;6.536;2023-05-03T08:35:28;11.30;78.90
61016;DHT22;46902;52.920;6.536;2023-05-03T08:37:53;11.30;78.90
61016;DHT22;46902;52.920;6.536;2023-05-03T08:40:22;11.40;78.90
61016;DHT22;46902;52.920;6.536;2023-05-03T08:42:51;11.50;78.30
61016;DHT22;46902;52.920;6.536;2023-05-03T08:45:18;11.50;78.10
61016;DHT22;46902;52.920;6.536;2023-05-03T08:47:44;11.50;78.40
61016;DHT22;46902;52.920;6.536;2023-05-03T08:50:11;11.60;78.20
61016;DHT22;46902;52.920;6.536;2023-05-03T08:52:41;11.60;77.30
61016;DHT22;46902;52.920;6.536;2023-05-03T08:55:08;11.70;76.70
61016;DHT22;46902;52.920;6.536;2023-05-03T08:57:34;11.60;76.40
61016;DHT22;46902;52.920;6.536;2023-05-03T09:00:01;11.60;76.10
61016;DHT22;46902;52.920;6.536;2023-05-03T09:02:30;11.70;76.50
61016;DHT22;46902;52.920;6.536;2023-05-03T09:04:59;11.90;76.90
61016;DHT22;46902;52.920;6.536;2023-05-03T09:07:24;12.10;76.70
61016;DHT22;46902;52.920;6.536;2023-05-03T09:09:50;12.60;75.80
61016;DHT22;46902;52.920;6.536;2023-05-03T09:12:36;13.00;75.00
61016;DHT22;46902;52.920;6.536;2023-05-03T09:15:03;13.40;75.80
61016;DHT22;46902;52.920;6.536;2023-05-03T09:17:30;13.60;74.20
61016;DHT22;46902;52.920;6.536;2023-05-03T09:19:57;13.60;72.90
61016;DHT22;46902;52.920;6.536;2023-05-03T09:22:26;13.40;72.10
61016;DHT22;46902;52.920;6.536;2023-05-03T09:24:56;13.30;71.50
61016;DHT22;46902;52.920;6.536;2023-05-03T09:27:24;13.10;71.70
61016;DHT22;46902;52.920;6.536;2023-05-03T09:29:50;13.00;71.60
61016;DHT22;46902;52.920;6.536;2023-05-03T09:32:17;13.00;71.70
61016;DHT22;46902;52.920;6.536;2023-05-03T09:34:44;12.90;71.20
61016;DHT22;46902;52.920;6.536;2023-05-03T09:37:10;12.90;71.20
61016;DHT22;46902;52.920;6.536;2023-05-03T09:39:39;12.90;72.20
61016;DHT22;46902;52.920;6.536;2023-05-03T09:42:16;12.90;71.60
61016;DHT22;46902;52.920;6.536;2023-05-03T09:44:43;12.90;71.90
61016;DHT22;46902;52.920;6.536;2023-05-03T09:47:10;12.80;71.70
61016;DHT22;46902;52.920;6.536;2023-05-03T09:49:37;12.90;71.10
61016;DHT22;46902;52.920;6.536;2023-05-03T09:52:03;13.20;72.00
61016;DHT22;46902;52.920;6.536;2023-05-03T09:54:29;13.60;71.80
61016;DHT22;46902;52.920;6.536;2023-05-03T09:57:01;14.00;70.90
61016;DHT22;46902;52.920;6.536;2023-05-03T09:59:29;14.20;70.80
61016;DHT22;46902;52.920;6.536;2023-05-03T10:01:56;14.30;69.30
61016;DHT22;46902;52.920;6.536;2023-05-03T10:04:26;14.20;68.00
61016;DHT22;46902;52.920;6.536;2023-05-03T10:07:00;14.30;67.80
61016;DHT22;46902;52.920;6.536;2023-05-03T10:09:38;14.30;67.10
61016;DHT22;46902;52.920;6.536;2023-05-03T10:12:07;14.20;66.70
61016;DHT22;46902;52.920;6.536;2023-05-03T10:14:33;14.10;66.70
61016;DHT22;46902;52.920;6.536;2023-05-03T10:17:06;14.10;66.70
61016;DHT22;46902;52.920;6.536;2023-05-03T10:19:38;14.00;66.80
61016;DHT22;46902;52.920;6.536;2023-05-03T10:22:07;13.90;67.00
61016;DHT22;46902;52.920;6.536;2023-05-03T10:24:33;13.90;67.30
61016;DHT22;46902;52.920;6.536;2023-05-03T10:27:00;13.80;66.80
61016;DHT22;46902;52.920;6.536;2023-05-03T10:32:04;14.20;67.00
61016;DHT22;46902;52.920;6.536;2023-05-03T10:34:34;14.70;66.60
61016;DHT22;46902;52.920;6.536;2023-05-03T10:37:04;15.10;66.10
61016;DHT22;46902;52.920;6.536;2023-05-03T10:39:32;15.30;66.10
61016;DHT22;46902;52.920;6.536;2023-05-03T10:42:05;15.50;65.60
61016;DHT22;46902;52.920;6.536;2023-05-03T10:44:52;15.70;64.60
61016;DHT22;46902;52.920;6.536;2023-05-03T10:47:21;15.70;62.50
61016;DHT22;46902;52.920;6.536;2023-05-03T10:55:17;15.50;63.60
61016;DHT22;46902;52.920;6.536;2023-05-03T10:57:44;15.60;63.20
61016;DHT22;46902;52.920;6.536;2023-05-03T11:00:13;15.70;63.70
61016;DHT22;46902;52.920;6.536;2023-05-03T11:03:06;16.00;63.50
61016;DHT22;46902;52.920;6.536;2023-05-03T11:05:37;16.40;63.50
61016;DHT22;46902;52.920;6.536;2023-05-03T11:08:11;16.70;63.20
61016;DHT22;46902;52.920;6.536;2023-05-03T11:10:38;16.90;62.20
61016;DHT22;46902;52.920;6.536;2023-05-03T11:13:04;16.90;61.70
61016;DHT22;46902;52.920;6.536;2023-05-03T11:15:31;16.90;61.10
61016;DHT22;46902;52.920;6.536;2023-05-03T11:17:56;17.00;60.90
61016;DHT22;46902;52.920;6.536;2023-05-03T11:20:22;16.80;60.40
61016;DHT22;46902;52.920;6.536;2023-05-03T11:22:48;16.70;60.00
61016;DHT22;46902;52.920;6.536;2023-05-03T11:25:14;16.80;60.30
61016;DHT22;46902;52.920;6.536;2023-05-03T11:27:40;17.00;60.40
61016;DHT22;46902;52.920;6.536;2023-05-03T11:30:07;17.10;60.60
61016;DHT22;46902;52.920;6.536;2023-05-03T11:32:33;17.30;60.00
61016;DHT22;46902;52.920;6.536;2023-05-03T11:35:00;17.40;59.30
61016;DHT22;46902;52.920;6.536;2023-05-03T11:37:27;17.60;59.50
61016;DHT22;46902;52.920;6.536;2023-05-03T11:39:53;17.60;58.30
61016;DHT22;46902;52.920;6.536;2023-05-03T11:42:19;17.80;58.40
61016;DHT22;46902;52.920;6.536;2023-05-03T11:44:44;17.90;57.20
61016;DHT22;46902;52.920;6.536;2023-05-03T11:47:10;18.00;57.00
61016;DHT22;46902;52.920;6.536;2023-05-03T11:49:36;18.00;56.70
61016;DHT22;46902;52.920;6.536;2023-05-03T11:52:02;18.30;56.90
61016;DHT22;46902;52.920;6.536;2023-05-03T11:54:29;18.50;56.90
61016;DHT22;46902;52.920;6.536;2023-05-03T11:56:56;18.60;56.30
61016;DHT22;46902;52.920;6.536;2023-05-03T11:59:37;18.50;55.70
61016;DHT22;46902;52.920;6.536;2023-05-03T12:02:06;18.60;54.60
61016;DHT22;46902;52.920;6.536;2023-05-03T12:04:33;18.60;55.20
61016;DHT22;46902;52.920;6.536;2023-05-03T12:07:00;18.80;54.30
61016;DHT22;46902;52.920;6.536;2023-05-03T12:09:26;19.00;54.70
61016;DHT22;46902;52.920;6.536;2023-05-03T12:11:52;19.00;53.40
61016;DHT22;46902;52.920;6.536;2023-05-03T12:14:18;19.10;54.20
61016;DHT22;46902;52.920;6.536;2023-05-03T12:16:48;19.10;53.40
61016;DHT22;46902;52.920;6.536;2023-05-03T12:19:28;19.20;53.00
61016;DHT22;46902;52.920;6.536;2023-05-03T12:21:55;19.20;51.00
61016;DHT22;46902;52.920;6.536;2023-05-03T12:24:21;19.10;52.60
61016;DHT22;46902;52.920;6.536;2023-05-03T12:26:51;19.10;52.60
61016;DHT22;46902;52.920;6.536;2023-05-03T12:29:16;19.30;53.50
61016;DHT22;46902;52.920;6.536;2023-05-03T12:31:44;19.20;53.20
61016;DHT22;46902;52.920;6.536;2023-05-03T12:34:10;19.30;53.50
61016;DHT22;46902;52.920;6.536;2023-05-03T12:36:36;19.40;54.30
61016;DHT22;46902;52.920;6.536;2023-05-03T12:39:02;19.50;53.60
61016;DHT22;46902;52.920;6.536;2023-05-03T12:41:28;19.70;52.80
61016;DHT22;46902;52.920;6.536;2023-05-03T12:43:59;19.90;53.00
61016;DHT22;46902;52.920;6.536;2023-05-03T12:46:26;19.90;51.60
61016;DHT22;46902;52.920;6.536;2023-05-03T12:48:52;19.80;51.90
61016;DHT22;46902;52.920;6.536;2023-05-03T12:51:18;19.70;52.00
61016;DHT22;46902;52.920;6.536;2023-05-03T12:53:44;19.70;52.70
61016;DHT22;46902;52.920;6.536;2023-05-03T12:56:11;19.60;51.70
61016;DHT22;46902;52.920;6.536;2023-05-03T12:58:37;19.50;51.70
61016;DHT22;46902;52.920;6.536;2023-05-03T13:01:02;19.50;51.30
61016;DHT22;46902;52.920;6.536;2023-05-03T13:03:28;19.50;51.00
61016;DHT22;46902;52.920;6.536;2023-05-03T13:05:54;19.40;51.60
61016;DHT22;46902;52.920;6.536;2023-05-03T13:08:19;19.60;52.30
61016;DHT22;46902;52.920;6.536;2023-05-03T13:10:45;19.70;50.60
61016;DHT22;46902;52.920;6.536;2023-05-03T13:13:12;19.70;50.80
61016;DHT22;46902;52.920;6.536;2023-05-03T13:15:38;19.60;50.90
61016;DHT22;46902;52.920;6.536;2023-05-03T13:18:05;19.70;51.60
61016;DHT22;46902;52.920;6.536;2023-05-03T13:20:31;19.70;51.60
61016;DHT22;46902;52.920;6.536;2023-05-03T13:22:57;19.70;52.00
61016;DHT22;46902;52.920;6.536;2023-05-03T13:25:24;19.70;51.90
61016;DHT22;46902;52.920;6.536;2023-05-03T13:27:50;19.70;52.50
61016;DHT22;46902;52.920;6.536;2023-05-03T13:30:21;19.80;51.40
61016;DHT22;46902;52.920;6.536;2023-05-03T13:32:48;19.80;50.90
61016;DHT22;46902;52.920;6.536;2023-05-03T13:35:15;19.90;51.40
61016;DHT22;46902;52.920;6.536;2023-05-03T13:37:41;19.80;51.10
61016;DHT22;46902;52.920;6.536;2023-05-03T13:40:07;19.90;51.10
61016;DHT22;46902;52.920;6.536;2023-05-03T13:42:34;19.90;50.90
61016;DHT22;46902;52.920;6.536;2023-05-03T13:44:59;20.00;50.30
61016;DHT22;46902;52.920;6.536;2023-05-03T13:47:25;20.00;50.00
61016;DHT22;46902;52.920;6.536;2023-05-03T13:49:55;19.90;49.20
61016;DHT22;46902;52.920;6.536;2023-05-03T13:52:22;19.90;50.00
61016;DHT22;46902;52.920;6.536;2023-05-03T13:54:47;19.90;50.20
61016;DHT22;46902;52.920;6.536;2023-05-03T13:57:13;19.90;50.50
61016;DHT22;46902;52.920;6.536;2023-05-03T13:59:39;19.80;49.40
61016;DHT22;46902;52.920;6.536;2023-05-03T14:02:06;19.80;49.50
61016;DHT22;46902;52.920;6.536;2023-05-03T14:04:32;19.80;50.70
61016;DHT22;46902;52.920;6.536;2023-05-03T14:06:57;19.80;50.00
61016;DHT22;46902;52.920;6.536;2023-05-03T14:09:29;19.90;50.30
61016;DHT22;46902;52.920;6.536;2023-05-03T14:11:55;19.90;50.70
61016;DHT22;46902;52.920;6.536;2023-05-03T14:14:21;19.90;49.80
61016;DHT22;46902;52.920;6.536;2023-05-03T14:16:46;19.80;51.20
61016;DHT22;46902;52.920;6.536;2023-05-03T14:19:12;19.80;50.30
61016;DHT22;46902;52.920;6.536;2023-05-03T14:21:40;19.70;50.50
61016;DHT22;46902;52.920;6.536;2023-05-03T14:24:06;19.70;50.20
61016;DHT22;46902;52.920;6.536;2023-05-03T14:26:31;19.60;49.80
61016;DHT22;46902;52.920;6.536;2023-05-03T14:28:58;19.50;50.30
61016;DHT22;46902;52.920;6.536;2023-05-03T14:31:24;19.50;49.40
61016;DHT22;46902;52.920;6.536;2023-05-03T14:33:49;19.60;50.00
61016;DHT22;46902;52.920;6.536;2023-05-03T14:36:15;19.50;50.10
61016;DHT22;46902;52.920;6.536;2023-05-03T14:38:41;19.40;49.70
61016;DHT22;46902;52.920;6.536;2023-05-03T14:41:06;19.30;49.70
61016;DHT22;46902;52.920;6.536;2023-05-03T14:43:32;19.30;50.20
61016;DHT22;46902;52.920;6.536;2023-05-03T14:45:58;19.30;49.70
61016;DHT22;46902;52.920;6.536;2023-05-03T14:48:23;19.20;49.50
61016;DHT22;46902;52.920;6.536;2023-05-03T14:50:50;19.20;49.80
61016;DHT22;46902;52.920;6.536;2023-05-03T14:53:16;19.20;50.70
61016;DHT22;46902;52.920;6.536;2023-05-03T14:55:41;19.10;50.70
61016;DHT22;46902;52.920;6.536;2023-05-03T14:58:07;19.10;50.80
61016;DHT22;46902;52.920;6.536;2023-05-03T15:00:38;19.00;50.50
61016;DHT22;46902;52.920;6.536;2023-05-03T15:03:04;19.00;51.20
61016;DHT22;46902;52.920;6.536;2023-05-03T15:05:30;19.00;51.20
61016;DHT22;46902;52.920;6.536;2023-05-03T15:07:56;19.00;51.10
61016;DHT22;46902;52.920;6.536;2023-05-03T15:10:23;19.00;51.00
61016;DHT22;46902;52.920;6.536;2023-05-03T15:12:48;18.90;50.90
61016;DHT22;46902;52.920;6.536;2023-05-03T15:15:14;19.00;50.90
61016;DHT22;46902;52.920;6.536;2023-05-03T15:17:40;19.00;51.20
61016;DHT22;46902;52.920;6.536;2023-05-03T15:20:06;19.00;51.40
61016;DHT22;46902;52.920;6.536;2023-05-03T15:22:34;18.90;50.70
61016;DHT22;46902;52.920;6.536;2023-05-03T15:25:00;18.70;51.30
61016;DHT22;46902;52.920;6.536;2023-05-03T15:27:26;18.60;52.00
61016;DHT22;46902;52.920;6.536;2023-05-03T15:29:51;18.70;52.20
61016;DHT22;46902;52.920;6.536;2023-05-03T15:32:17;18.60;52.50
61016;DHT22;46902;52.920;6.536;2023-05-03T15:34:42;18.70;52.50
61016;DHT22;46902;52.920;6.536;2023-05-03T15:37:08;18.60;52.10
61016;DHT22;46902;52.920;6.536;2023-05-03T15:39:36;18.50;51.30
61016;DHT22;46902;52.920;6.536;2023-05-03T15:42:03;18.50;51.90
61016;DHT22;46902;52.920;6.536;2023-05-03T15:44:28;18.40;51.50
61016;DHT22;46902;52.920;6.536;2023-05-03T15:46:54;18.30;51.80